Time;durP1;ratioP1;P1;durP2;ratioP2;P2;SDS_P1;SDS_P2;PMS_P1;PMS_P2;Temp;Humidity;BMP_temperature;BMP_pressure;BME280_temperature;BME280_humidity;BME280_pressure;Samples;Min_cycle;Max_cycle;Signal;HPM_P1;HPM_P2
2023/09/11 00:00:44;;;;;;;7.85;6.57;;;;;;;;;;5003566;28;20195;-71
2023/09/11 00:03:11;;;;;;;8.32;6.88;;;;;;;;;;5001777;28;20202;-71
2023/09/11 00:05:37;;;;;;;7.95;6.90;;;;;;;;;;4999952;28;20502;-71
2023/09/11 00:08:03;;;;;;;10.73;7.50;;;;;;;;;;5000188;28;20236;-70
2023/09/11 00:10:32;;;;;;;9.73;7.57;;;;;;;;;;5000122;28;20219;-69
2023/09/11 00:13:00;;;;;;;12.35;7.03;;;;;;;;;;5000227;28;20261;-70
2023/09/11 00:15:26;;;;;;;8.30;7.50;;;;;;;;;;4992056;28;20215;-71
2023/09/11 00:17:52;;;;;;;7.40;6.68;;;;;;;;;;5002492;28;20223;-71
2023/09/11 00:20:18;;;;;;;7.75;6.90;;;;;;;;;;5006474;28;20203;-71
2023/09/11 00:22:45;;;;;;;9.57;7.18;;;;;;;;;;5007087;28;20268;-70
2023/09/11 00:25:11;;;;;;;8.40;7.57;;;;;;;;;;5005154;28;20222;-70
2023/09/11 00:27:37;;;;;;;9.45;7.68;;;;;;;;;;5003846;28;20210;-71
2023/09/11 00:30:06;;;;;;;10.52;7.22;;;;;;;;;;5004293;28;20210;-71
2023/09/11 00:32:32;;;;;;;7.97;7.28;;;;;;;;;;5007048;28;20681;-71
2023/09/11 00:34:58;;;;;;;7.85;7.03;;;;;;;;;;5006672;28;20222;-70
2023/09/11 00:37:25;;;;;;;10.30;7.50;;;;;;;;;;5003927;28;20210;-70
2023/09/11 00:39:51;;;;;;;8.75;7.85;;;;;;;;;;5003534;28;20199;-70
2023/09/11 00:42:17;;;;;;;8.35;6.97;;;;;;;;;;5005469;28;20226;-70
2023/09/11 00:44:43;;;;;;;7.63;6.93;;;;;;;;;;5006730;28;20199;-70
2023/09/11 00:47:12;;;;;;;8.68;6.93;;;;;;;;;;5005249;28;20198;-70
2023/09/11 00:49:38;;;;;;;10.32;7.93;;;;;;;;;;5003313;28;20203;-70
2023/09/11 00:52:05;;;;;;;8.52;7.45;;;;;;;;;;5003140;28;20218;-70
2023/09/11 00:54:31;;;;;;;9.43;7.85;;;;;;;;;;5006593;28;20289;-70
2023/09/11 00:56:57;;;;;;;8.02;7.22;;;;;;;;;;5006237;28;20207;-70
2023/09/11 00:59:24;;;;;;;8.55;7.60;;;;;;;;;;5004063;28;20663;-70
2023/09/11 01:01:50;;;;;;;9.05;8.18;;;;;;;;;;5003842;28;20275;-70
2023/09/11 01:04:18;;;;;;;9.90;7.53;;;;;;;;;;5004435;28;20203;-70
2023/09/11 01:06:46;;;;;;;14.07;7.85;;;;;;;;;;5005834;28;20218;-70
2023/09/11 01:09:12;;;;;;;10.63;8.00;;;;;;;;;;5005254;28;20202;-70
2023/09/11 01:11:39;;;;;;;8.40;7.55;;;;;;;;;;5002826;28;20218;-70
2023/09/11 01:14:05;;;;;;;8.52;7.32;;;;;;;;;;5002615;28;20206;-70
2023/09/11 01:16:35;;;;;;;8.00;7.30;;;;;;;;;;5005661;28;20214;-70
2023/09/11 01:19:03;;;;;;;11.60;7.95;;;;;;;;;;5005876;28;20195;-70
2023/09/11 01:21:45;;;;;;;9.00;8.15;;;;;;;;;;5002469;28;20234;-70
2023/09/11 01:24:23;;;;;;;8.90;7.95;;;;;;;;;;5003373;28;20207;-70
2023/09/11 01:26:58;;;;;;;11.02;7.60;;;;;;;;;;5005532;28;20301;-70
2023/09/11 01:29:26;;;;;;;8.80;7.65;;;;;;;;;;5002438;28;20213;-70
2023/09/11 01:31:54;;;;;;;8.20;7.50;;;;;;;;;;5002153;28;20696;-71
2023/09/11 01:34:21;;;;;;;8.25;7.55;;;;;;;;;;5004194;28;20236;-70
2023/09/11 01:36:47;;;;;;;8.98;8.18;;;;;;;;;;5005471;28;20222;-70
2023/09/11 01:39:13;;;;;;;12.27;8.93;;;;;;;;;;5004861;28;20205;-70
2023/09/11 01:41:41;;;;;;;9.02;8.13;;;;;;;;;;5002223;28;20664;-70
2023/09/11 01:44:10;;;;;;;8.63;7.85;;;;;;;;;;5002362;28;20199;-70
2023/09/11 01:46:38;;;;;;;9.13;8.10;;;;;;;;;;4994218;28;20225;-70
2023/09/11 01:49:05;;;;;;;9.63;8.60;;;;;;;;;;5002097;28;20595;-70
2023/09/11 01:51:32;;;;;;;10.88;7.97;;;;;;;;;;5005016;28;20214;-71
2023/09/11 01:53:58;;;;;;;8.00;7.40;;;;;;;;;;5005501;28;20199;-71
2023/09/11 01:56:25;;;;;;;9.02;8.13;;;;;;;;;;5002613;28;20302;-71
2023/09/11 01:58:51;;;;;;;9.98;9.00;;;;;;;;;;5002129;28;20277;-71
2023/09/11 02:01:17;;;;;;;9.88;8.85;;;;;;;;;;5002816;28;20222;-71
2023/09/11 02:03:45;;;;;;;12.52;8.98;;;;;;;;;;5005255;28;20203;-71
2023/09/11 02:06:11;;;;;;;9.05;8.15;;;;;;;;;;5004677;28;20325;-71
2023/09/11 02:08:37;;;;;;;11.07;8.00;;;;;;;;;;5001900;28;20236;-71
2023/09/11 02:11:04;;;;;;;10.05;8.68;;;;;;;;;;5001570;28;20230;-71
2023/09/11 02:13:30;;;;;;;9.45;8.55;;;;;;;;;;5004104;28;20591;-71
2023/09/11 02:15:56;;;;;;;11.57;8.35;;;;;;;;;;5004831;28;20222;-71
2023/09/11 02:18:23;;;;;;;10.88;9.40;;;;;;;;;;5003264;28;20249;-71
2023/09/11 02:20:50;;;;;;;10.50;9.48;;;;;;;;;;5001534;28;20206;-71
2023/09/11 02:23:17;;;;;;;13.75;9.90;;;;;;;;;;5001811;28;20258;-71
2023/09/11 02:25:43;;;;;;;10.75;8.93;;;;;;;;;;5004423;28;20264;-71
2023/09/11 02:28:09;;;;;;;10.95;9.45;;;;;;;;;;5004676;28;20203;-71
2023/09/11 02:30:36;;;;;;;10.02;9.00;;;;;;;;;;5001215;28;20203;-71
2023/09/11 02:33:02;;;;;;;10.40;9.20;;;;;;;;;;5001320;28;20206;-71
2023/09/11 02:35:28;;;;;;;15.27;9.70;;;;;;;;;;5009099;28;20226;-71
2023/09/11 02:37:56;;;;;;;13.57;9.57;;;;;;;;;;5001241;28;20207;-71
2023/09/11 02:40:22;;;;;;;12.27;9.75;;;;;;;;;;5002226;28;20216;-71
2023/09/11 02:42:47;;;;;;;10.98;9.10;;;;;;;;;;5004724;28;20199;-71
2023/09/11 02:45:14;;;;;;;12.70;9.65;;;;;;;;;;5004296;28;20214;-71
2023/09/11 02:47:40;;;;;;;12.68;9.77;;;;;;;;;;4993212;28;20197;-71
2023/09/11 02:50:07;;;;;;;12.85;10.70;;;;;;;;;;5001037;28;20196;-71
2023/09/11 02:52:33;;;;;;;11.55;10.02;;;;;;;;;;5003352;28;20251;-71
2023/09/11 02:55:01;;;;;;;11.02;10.02;;;;;;;;;;5003965;28;20225;-71
2023/09/11 02:57:28;;;;;;;13.20;9.10;;;;;;;;;;5002132;28;20202;-71
2023/09/11 02:59:55;;;;;;;14.82;9.30;;;;;;;;;;5000596;28;20561;-71
2023/09/11 03:02:21;;;;;;;10.35;9.40;;;;;;;;;;5001698;28;20195;-71
2023/09/11 03:04:50;;;;;;;11.18;9.88;;;;;;;;;;5003952;28;20265;-71
2023/09/11 03:07:17;;;;;;;11.57;10.38;;;;;;;;;;5004015;28;20581;-71
2023/09/11 03:09:44;;;;;;;11.20;9.55;;;;;;;;;;5001114;28;20199;-71
2023/09/11 03:12:11;;;;;;;10.30;9.27;;;;;;;;;;5001173;28;20225;-71
2023/09/11 03:14:37;;;;;;;11.13;9.93;;;;;;;;;;5001784;28;20666;-71
2023/09/11 03:17:04;;;;;;;10.02;9.13;;;;;;;;;;5007048;28;20198;-71
2023/09/11 03:19:33;;;;;;;11.93;9.75;;;;;;;;;;5001979;28;20207;-71
2023/09/11 03:21:59;;;;;;;11.65;9.15;;;;;;;;;;5000404;28;20221;-71
2023/09/11 03:24:25;;;;;;;10.35;9.45;;;;;;;;;;5001243;28;20207;-71
2023/09/11 03:26:52;;;;;;;10.95;9.38;;;;;;;;;;5003900;28;20206;-71
2023/09/11 03:29:19;;;;;;;10.25;9.35;;;;;;;;;;5003744;28;20313;-71
2023/09/11 03:31:45;;;;;;;14.10;9.50;;;;;;;;;;4992660;28;20330;-71
2023/09/11 03:34:12;;;;;;;10.18;9.13;;;;;;;;;;5000465;28;20206;-71
2023/09/11 03:36:38;;;;;;;10.40;8.52;;;;;;;;;;4999929;28;20591;-71
2023/09/11 03:39:04;;;;;;;10.18;8.18;;;;;;;;;;5000086;28;20695;-71
2023/09/11 03:41:31;;;;;;;12.52;9.23;;;;;;;;;;5001639;28;20231;-71
2023/09/11 03:43:57;;;;;;;13.75;9.68;;;;;;;;;;5003662;28;20206;-71
2023/09/11 03:46:25;;;;;;;9.48;8.68;;;;;;;;;;5002561;28;20770;-71
2023/09/11 03:48:51;;;;;;;10.30;9.38;;;;;;;;;;5000124;28;20195;-71
2023/09/11 03:51:17;;;;;;;11.73;9.60;;;;;;;;;;5000001;28;20219;-71
2023/09/11 03:53:44;;;;;;;10.70;9.45;;;;;;;;;;5006213;28;20252;-71
2023/09/11 03:56:10;;;;;;;10.13;8.98;;;;;;;;;;5007506;28;20218;-71
2023/09/11 03:58:36;;;;;;;10.27;9.30;;;;;;;;;;5005433;28;20198;-71
2023/09/11 04:01:03;;;;;;;10.98;9.35;;;;;;;;;;5003974;28;20685;-71
2023/09/11 04:03:30;;;;;;;11.25;9.65;;;;;;;;;;5004858;28;20207;-71
2023/09/11 04:05:56;;;;;;;10.23;9.23;;;;;;;;;;5006821;28;20218;-71
2023/09/11 04:08:23;;;;;;;10.95;9.85;;;;;;;;;;5006935;28;20694;-71
2023/09/11 04:10:49;;;;;;;11.15;10.02;;;;;;;;;;5004058;28;20226;-70
2023/09/11 04:13:15;;;;;;;12.65;9.98;;;;;;;;;;5003908;28;20222;-70
2023/09/11 04:15:41;;;;;;;10.80;9.75;;;;;;;;;;5005925;28;20226;-70
2023/09/11 04:18:08;;;;;;;13.02;10.15;;;;;;;;;;5006986;28;20627;-71
2023/09/11 04:20:35;;;;;;;11.68;10.00;;;;;;;;;;5005351;28;20206;-71
2023/09/11 04:23:02;;;;;;;11.43;10.32;;;;;;;;;;5003854;28;20305;-71
2023/09/11 04:25:28;;;;;;;11.43;10.15;;;;;;;;;;5004108;28;20314;-71
2023/09/11 04:27:54;;;;;;;11.60;9.38;;;;;;;;;;5007028;28;20198;-71
2023/09/11 04:30:21;;;;;;;10.27;9.27;;;;;;;;;;5007325;28;20202;-71
2023/09/11 04:32:47;;;;;;;14.00;9.63;;;;;;;;;;5003378;28;20706;-69
2023/09/11 04:35:14;;;;;;;11.85;9.30;;;;;;;;;;5002948;28;20223;-68
2023/09/11 04:37:41;;;;;;;10.75;9.65;;;;;;;;;;5005450;28;20203;-68
2023/09/11 04:40:08;;;;;;;12.13;10.18;;;;;;;;;;5006718;28;20210;-68
2023/09/11 04:42:36;;;;;;;11.18;9.57;;;;;;;;;;5005066;28;20286;-68
2023/09/11 04:45:03;;;;;;;10.50;9.43;;;;;;;;;;5002883;28;20230;-68
2023/09/11 04:47:31;;;;;;;10.77;9.70;;;;;;;;;;5003423;28;20290;-68
2023/09/11 04:49:57;;;;;;;10.63;9.52;;;;;;;;;;5006338;28;20198;-68
2023/09/11 04:52:24;;;;;;;10.30;9.27;;;;;;;;;;5006549;28;20219;-68
2023/09/11 04:54:51;;;;;;;10.77;8.63;;;;;;;;;;5003201;28;20306;-68
2023/09/11 04:57:17;;;;;;;11.15;8.85;;;;;;;;;;5002878;28;20203;-69
2023/09/11 04:59:44;;;;;;;10.55;9.60;;;;;;;;;;5005041;28;20203;-69
2023/09/11 05:02:11;;;;;;;10.75;9.65;;;;;;;;;;5006249;28;20202;-69
2023/09/11 05:04:37;;;;;;;10.27;9.38;;;;;;;;;;5003616;28;20214;-69
2023/09/11 05:07:03;;;;;;;9.77;8.95;;;;;;;;;;5002464;28;20655;-69
2023/09/11 05:09:31;;;;;;;10.98;10.00;;;;;;;;;;5002951;28;20214;-68
2023/09/11 05:11:58;;;;;;;10.40;9.50;;;;;;;;;;5005969;28;20223;-68
2023/09/11 05:14:25;;;;;;;9.82;8.95;;;;;;;;;;5005963;28;20217;-68
2023/09/11 05:16:51;;;;;;;9.38;8.23;;;;;;;;;;5002494;28;20199;-68
2023/09/11 05:19:17;;;;;;;11.88;9.50;;;;;;;;;;5002760;28;20225;-68
2023/09/11 05:21:43;;;;;;;9.70;8.90;;;;;;;;;;5004706;28;20204;-68
2023/09/11 05:24:10;;;;;;;10.40;9.30;;;;;;;;;;5006864;28;20210;-69
2023/09/11 05:26:36;;;;;;;9.90;9.00;;;;;;;;;;5008679;28;20233;-69
2023/09/11 05:29:04;;;;;;;10.13;9.20;;;;;;;;;;5002478;28;20204;-69
2023/09/11 05:31:30;;;;;;;10.77;9.68;;;;;;;;;;5002107;28;20203;-69
2023/09/11 05:33:56;;;;;;;11.32;9.10;;;;;;;;;;5005901;28;20210;-69
2023/09/11 05:36:22;;;;;;;11.50;9.73;;;;;;;;;;5005510;28;20592;-69
2023/09/11 05:38:49;;;;;;;11.93;9.75;;;;;;;;;;5002977;28;20218;-68
2023/09/11 05:41:15;;;;;;;15.25;9.98;;;;;;;;;;5002218;28;20203;-68
2023/09/11 05:43:42;;;;;;;11.32;10.13;;;;;;;;;;5003633;28;20211;-68
2023/09/11 05:46:09;;;;;;;13.05;9.95;;;;;;;;;;5005165;28;20237;-68
2023/09/11 05:48:36;;;;;;;10.90;9.75;;;;;;;;;;5004544;28;20206;-68
2023/09/11 05:51:02;;;;;;;11.85;10.23;;;;;;;;;;5002166;28;20286;-68
2023/09/11 05:53:28;;;;;;;16.80;11.05;;;;;;;;;;5001955;28;20699;-68
2023/09/11 05:55:55;;;;;;;15.18;10.38;;;;;;;;;;5004557;28;20223;-69
2023/09/11 05:58:21;;;;;;;21.00;10.88;;;;;;;;;;5005194;28;20218;-70
2023/09/11 06:00:48;;;;;;;11.88;10.50;;;;;;;;;;5002899;28;20261;-70
2023/09/11 06:03:15;;;;;;;15.82;11.32;;;;;;;;;;5002120;28;20223;-70
2023/09/11 06:05:42;;;;;;;12.63;11.32;;;;;;;;;;5002589;28;20700;-70
2023/09/11 06:08:08;;;;;;;16.65;11.55;;;;;;;;;;4997071;28;20211;-68
2023/09/11 06:10:35;;;;;;;12.75;11.45;;;;;;;;;;4986070;28;20219;-68
2023/09/11 06:13:01;;;;;;;13.02;11.20;;;;;;;;;;4994671;28;20222;-68
2023/09/11 06:15:29;;;;;;;11.82;10.60;;;;;;;;;;4996438;28;20236;-67
2023/09/11 06:17:55;;;;;;;13.73;12.15;;;;;;;;;;4970647;28;20600;-67
2023/09/11 06:20:23;;;;;;;12.57;11.38;;;;;;;;;;4981110;28;20222;-67
2023/09/11 06:22:49;;;;;;;17.13;11.93;;;;;;;;;;4986419;28;20215;-67
2023/09/11 06:25:15;;;;;;;14.10;12.75;;;;;;;;;;4983912;28;20585;-66
2023/09/11 06:27:42;;;;;;;13.65;11.95;;;;;;;;;;4988092;28;20218;-69
2023/09/11 06:30:09;;;;;;;15.20;12.77;;;;;;;;;;4984819;28;20212;-70
2023/09/11 06:32:35;;;;;;;14.02;11.68;;;;;;;;;;4980379;28;20313;-68
2023/09/11 06:35:04;;;;;;;22.00;12.25;;;;;;;;;;4988641;28;20231;-68
2023/09/11 06:37:32;;;;;;;16.30;13.05;;;;;;;;;;4986967;28;20215;-69
2023/09/11 06:39:58;;;;;;;12.98;11.65;;;;;;;;;;4983769;28;20243;-69
2023/09/11 06:42:25;;;;;;;15.32;12.07;;;;;;;;;;4983610;28;20218;-67
2023/09/11 06:44:52;;;;;;;15.20;12.38;;;;;;;;;;4986930;28;20262;-68
2023/09/11 06:47:18;;;;;;;14.23;11.95;;;;;;;;;;4985603;28;20208;-68
2023/09/11 06:49:44;;;;;;;23.63;12.60;;;;;;;;;;4986442;28;20234;-69
2023/09/11 06:52:11;;;;;;;13.02;11.45;;;;;;;;;;4988342;28;20238;-67
2023/09/11 06:54:38;;;;;;;16.10;11.90;;;;;;;;;;4980094;28;20219;-67
2023/09/11 06:57:05;;;;;;;11.68;10.48;;;;;;;;;;4980217;28;20563;-67
2023/09/11 06:59:32;;;;;;;16.38;12.07;;;;;;;;;;4983150;28;20664;-68
2023/09/11 07:01:58;;;;;;;12.88;11.65;;;;;;;;;;4983247;28;20215;-69
2023/09/11 07:04:25;;;;;;;11.85;10.65;;;;;;;;;;4988287;28;20211;-69
2023/09/11 07:06:51;;;;;;;12.65;11.45;;;;;;;;;;4979943;28;20211;-69
2023/09/11 07:09:17;;;;;;;13.77;11.10;;;;;;;;;;4985984;28;20221;-67
2023/09/11 07:11:45;;;;;;;12.50;11.25;;;;;;;;;;4983692;28;20213;-68
2023/09/11 07:14:12;;;;;;;13.02;11.70;;;;;;;;;;4986622;28;20619;-70
2023/09/11 07:16:39;;;;;;;14.93;11.57;;;;;;;;;;4987975;28;20665;-70
2023/09/11 07:19:05;;;;;;;13.23;11.73;;;;;;;;;;4979471;28;20488;-70
2023/09/11 07:21:31;;;;;;;13.65;10.93;;;;;;;;;;4982933;28;20219;-68
2023/09/11 07:23:57;;;;;;;14.27;11.25;;;;;;;;;;4986843;28;20214;-68
2023/09/11 07:26:24;;;;;;;12.85;10.82;;;;;;;;;;4981532;28;20239;-68
2023/09/11 07:28:54;;;;;;;14.13;11.88;;;;;;;;;;4980467;28;20230;-68
2023/09/11 07:31:20;;;;;;;15.23;10.93;;;;;;;;;;4983084;28;20220;-70
2023/09/11 07:33:47;;;;;;;12.75;10.55;;;;;;;;;;4982569;28;20315;-70
2023/09/11 07:36:13;;;;;;;14.50;10.68;;;;;;;;;;4978179;28;20231;-70
2023/09/11 07:38:44;;;;;;;12.77;10.68;;;;;;;;;;4984181;28;20247;-70
2023/09/11 07:41:10;;;;;;;11.60;10.43;;;;;;;;;;4971923;28;20238;-70
2023/09/11 07:43:36;;;;;;;15.07;10.98;;;;;;;;;;4981188;28;21010;-70
2023/09/11 07:46:04;;;;;;;11.60;10.32;;;;;;;;;;4983233;28;20345;-70
2023/09/11 07:48:30;;;;;;;14.48;9.52;;;;;;;;;;4978798;28;20233;-70
2023/09/11 07:50:56;;;;;;;17.23;10.32;;;;;;;;;;4981369;28;20218;-70
2023/09/11 07:53:23;;;;;;;15.60;10.43;;;;;;;;;;4981254;28;20245;-70
2023/09/11 07:55:49;;;;;;;12.63;9.65;;;;;;;;;;4979527;28;20314;-70
2023/09/11 07:58:17;;;;;;;11.80;10.38;;;;;;;;;;4983960;28;20660;-68
2023/09/11 08:00:43;;;;;;;10.10;9.13;;;;;;;;;;4981341;28;20212;-67
2023/09/11 08:03:11;;;;;;;11.85;10.02;;;;;;;;;;4973900;28;20203;-67
2023/09/11 08:05:37;;;;;;;15.80;9.65;;;;;;;;;;4987059;28;20238;-68
2023/09/11 08:08:03;;;;;;;16.00;11.02;;;;;;;;;;4984517;28;20214;-66
2023/09/11 08:10:30;;;;;;;13.25;10.38;;;;;;;;;;4983963;28;20219;-67
2023/09/11 08:12:56;;;;;;;16.23;10.30;;;;;;;;;;4986031;28;20226;-69
2023/09/11 08:15:23;;;;;;;21.08;10.30;;;;;;;;;;4981176;28;20606;-67
2023/09/11 08:17:50;;;;;;;10.77;9.85;;;;;;;;;;4976663;28;20305;-69
2023/09/11 08:20:17;;;;;;;13.15;9.52;;;;;;;;;;4982738;28;20207;-69
2023/09/11 08:22:44;;;;;;;13.27;9.27;;;;;;;;;;4980987;28;20711;-68
2023/09/11 08:25:10;;;;;;;11.70;9.38;;;;;;;;;;4979982;28;20231;-67
2023/09/11 08:27:37;;;;;;;11.10;9.73;;;;;;;;;;4983154;28;20238;-68
2023/09/11 08:30:03;;;;;;;11.00;9.40;;;;;;;;;;4978980;28;20523;-72
2023/09/11 08:32:29;;;;;;;14.40;9.77;;;;;;;;;;4974967;28;20234;-73
2023/09/11 08:34:56;;;;;;;13.73;9.50;;;;;;;;;;4977045;28;20244;-72
2023/09/11 08:37:25;;;;;;;14.77;8.82;;;;;;;;;;4983248;28;20207;-73
2023/09/11 08:39:51;;;;;;;14.25;9.25;;;;;;;;;;4987636;28;20277;-74
2023/09/11 08:42:17;;;;;;;14.02;10.15;;;;;;;;;;4990245;28;20306;-73
2023/09/11 08:44:44;;;;;;;11.50;9.48;;;;;;;;;;4987801;28;20218;-73
2023/09/11 08:47:12;;;;;;;16.90;8.57;;;;;;;;;;4988255;28;20555;-73
2023/09/11 08:49:42;;;;;;;14.80;8.70;;;;;;;;;;4977176;28;20221;-74
2023/09/11 08:52:09;;;;;;;10.00;8.70;;;;;;;;;;4985590;28;20237;-72
2023/09/11 08:54:41;;;;;;;12.70;8.55;;;;;;;;;;4981126;28;20227;-73
2023/09/11 08:57:09;;;;;;;9.50;8.52;;;;;;;;;;4982614;28;20214;-72
2023/09/11 08:59:37;;;;;;;12.88;8.82;;;;;;;;;;4988743;28;20206;-72
2023/09/11 09:02:04;;;;;;;10.13;8.10;;;;;;;;;;4973786;28;20211;-73
2023/09/11 09:04:31;;;;;;;10.32;9.15;;;;;;;;;;4982304;28;20233;-73
2023/09/11 09:06:57;;;;;;;12.88;8.25;;;;;;;;;;4982529;28;20218;-73
2023/09/11 09:09:23;;;;;;;10.77;8.65;;;;;;;;;;4985881;28;20214;-72
2023/09/11 09:11:52;;;;;;;10.82;8.15;;;;;;;;;;4988538;28;20211;-74
2023/09/11 09:14:19;;;;;;;9.38;8.30;;;;;;;;;;4987672;28;20242;-74
2023/09/11 09:16:45;;;;;;;10.77;8.57;;;;;;;;;;4975745;28;20322;-74
2023/09/11 09:19:11;;;;;;;9.90;8.40;;;;;;;;;;4971793;28;20221;-74
2023/09/11 09:21:58;;;;;;;9.88;7.93;;;;;;;;;;4982805;28;20598;-74
2023/09/11 09:24:24;;;;;;;9.68;7.45;;;;;;;;;;4984227;28;20207;-74
2023/09/11 09:26:58;;;;;;;13.90;8.25;;;;;;;;;;4988933;28;20214;-74
2023/09/11 09:29:25;;;;;;;8.90;8.00;;;;;;;;;;4977837;28;20211;-74
2023/09/11 09:31:51;;;;;;;7.88;6.90;;;;;;;;;;4982922;28;20215;-74
2023/09/11 09:34:18;;;;;;;10.82;7.35;;;;;;;;;;4971866;28;20230;-74
2023/09/11 09:36:48;;;;;;;11.43;7.95;;;;;;;;;;4978355;28;20226;-74
2023/09/11 09:39:15;;;;;;;11.73;7.43;;;;;;;;;;4977678;28;20402;-74
2023/09/11 09:41:51;;;;;;;11.65;7.85;;;;;;;;;;4984159;28;20219;-74
2023/09/11 09:44:29;;;;;;;10.90;7.53;;;;;;;;;;4978560;28;20211;-74
2023/09/11 09:46:55;;;;;;;11.50;7.47;;;;;;;;;;4978202;28;20219;-74
2023/09/11 09:49:22;;;;;;;12.05;7.63;;;;;;;;;;4983162;28;20211;-74
2023/09/11 09:51:48;;;;;;;11.00;7.75;;;;;;;;;;4984751;28;20226;-74
2023/09/11 09:54:14;;;;;;;8.73;6.80;;;;;;;;;;4985061;28;20226;-74
2023/09/11 09:56:41;;;;;;;10.02;6.72;;;;;;;;;;4971106;28;20231;-74
2023/09/11 09:59:08;;;;;;;8.80;6.63;;;;;;;;;;4980204;28;20210;-74
2023/09/11 10:01:45;;;;;;;12.63;6.57;;;;;;;;;;4982697;28;20245;-74
2023/09/11 10:04:15;;;;;;;7.45;6.32;;;;;;;;;;4987797;28;20596;-74
2023/09/11 10:06:41;;;;;;;6.82;5.78;;;;;;;;;;4978217;28;20254;-74
2023/09/11 10:09:08;;;;;;;9.95;6.32;;;;;;;;;;4980105;28;20206;-74
2023/09/11 10:11:35;;;;;;;8.35;6.07;;;;;;;;;;4986507;28;20214;-74
2023/09/11 10:14:02;;;;;;;9.82;6.25;;;;;;;;;;4985894;28;20223;-74
2023/09/11 10:16:30;;;;;;;7.25;5.75;;;;;;;;;;4987671;28;20238;-74
2023/09/11 10:18:58;;;;;;;9.55;6.15;;;;;;;;;;4986351;28;20211;-74
2023/09/11 10:21:25;;;;;;;6.82;5.72;;;;;;;;;;4989146;28;20210;-75
2023/09/11 10:23:52;;;;;;;7.88;5.43;;;;;;;;;;4975987;28;20208;-74
2023/09/11 10:26:22;;;;;;;10.85;5.38;;;;;;;;;;4978471;28;20234;-74
2023/09/11 10:28:50;;;;;;;8.25;5.43;;;;;;;;;;4984314;28;20211;-74
2023/09/11 10:31:18;;;;;;;11.38;5.07;;;;;;;;;;4984228;28;20218;-74
2023/09/11 10:33:46;;;;;;;10.02;5.30;;;;;;;;;;4983446;28;20250;-74
2023/09/11 10:36:14;;;;;;;9.68;5.47;;;;;;;;;;4974339;28;20226;-75
2023/09/11 10:38:41;;;;;;;6.32;5.07;;;;;;;;;;4984012;28;20207;-75
2023/09/11 10:41:08;;;;;;;11.60;5.15;;;;;;;;;;4980208;28;20207;-75
2023/09/11 10:43:35;;;;;;;5.72;5.03;;;;;;;;;;4983478;28;20235;-74
2023/09/11 10:46:14;;;;;;;6.97;5.05;;;;;;;;;;4980355;28;20230;-74
2023/09/11 10:48:41;;;;;;;11.55;5.07;;;;;;;;;;4972989;28;20207;-74
2023/09/11 10:51:07;;;;;;;12.95;4.93;;;;;;;;;;4983690;28;20229;-74
2023/09/11 10:53:35;;;;;;;5.22;4.70;;;;;;;;;;4984690;28;20234;-74
2023/09/11 10:56:02;;;;;;;9.80;4.82;;;;;;;;;;4980736;28;20586;-74
2023/09/11 10:58:29;;;;;;;13.77;5.10;;;;;;;;;;4977711;28;20214;-74
2023/09/11 11:00:56;;;;;;;13.38;5.05;;;;;;;;;;4981282;28;20242;-74
2023/09/11 11:03:24;;;;;;;11.82;5.50;;;;;;;;;;4980542;28;20204;-74
2023/09/11 11:05:52;;;;;;;10.52;5.00;;;;;;;;;;4969455;28;20227;-74
2023/09/11 11:08:18;;;;;;;8.30;4.65;;;;;;;;;;4976434;28;20248;-75
2023/09/11 11:10:50;;;;;;;9.30;4.78;;;;;;;;;;4984056;28;20229;-75
2023/09/11 11:13:17;;;;;;;7.45;4.70;;;;;;;;;;4979642;28;20218;-74
2023/09/11 11:15:43;;;;;;;8.57;5.00;;;;;;;;;;4987263;28;20237;-74
2023/09/11 11:18:11;;;;;;;7.95;5.00;;;;;;;;;;4980574;28;20281;-74
2023/09/11 11:20:38;;;;;;;6.38;4.70;;;;;;;;;;4985534;28;20630;-74
2023/09/11 11:23:08;;;;;;;5.90;4.88;;;;;;;;;;4983778;28;20218;-74
2023/09/11 11:25:34;;;;;;;10.20;4.93;;;;;;;;;;4989751;28;20221;-74
2023/09/11 11:28:06;;;;;;;10.48;5.07;;;;;;;;;;4988811;28;20206;-73
2023/09/11 11:30:34;;;;;;;7.63;4.43;;;;;;;;;;4990800;28;20297;-74
2023/09/11 11:33:01;;;;;;;8.35;4.90;;;;;;;;;;4993662;28;20206;-74
2023/09/11 11:35:27;;;;;;;10.98;4.82;;;;;;;;;;4996313;28;20225;-75
2023/09/11 11:37:54;;;;;;;12.98;5.10;;;;;;;;;;4993536;28;20222;-73
2023/09/11 11:40:20;;;;;;;10.27;4.70;;;;;;;;;;4993193;28;20231;-74
2023/09/11 11:42:47;;;;;;;8.15;4.70;;;;;;;;;;4997373;28;20206;-73
2023/09/11 11:45:14;;;;;;;7.28;4.22;;;;;;;;;;4986755;28;20638;-74
2023/09/11 11:47:41;;;;;;;6.63;4.82;;;;;;;;;;4986911;28;20202;-74
2023/09/11 11:50:08;;;;;;;19.27;5.25;;;;;;;;;;4988560;28;20226;-74
2023/09/11 11:52:35;;;;;;;10.73;4.82;;;;;;;;;;4985129;28;20236;-74
2023/09/11 11:55:02;;;;;;;11.35;4.53;;;;;;;;;;4986016;28;20246;-74
2023/09/11 11:57:28;;;;;;;6.18;4.38;;;;;;;;;;4986464;28;20214;-73
2023/09/11 11:59:54;;;;;;;5.78;3.80;;;;;;;;;;4986812;28;20214;-74
2023/09/11 12:02:22;;;;;;;6.90;4.05;;;;;;;;;;4992265;28;20210;-75
2023/09/11 12:04:53;;;;;;;8.18;4.20;;;;;;;;;;4984588;28;20215;-73
2023/09/11 12:07:20;;;;;;;8.88;4.13;;;;;;;;;;4991312;28;20214;-75
2023/09/11 12:09:46;;;;;;;10.77;4.43;;;;;;;;;;4991215;28;20614;-75
2023/09/11 12:12:13;;;;;;;10.35;4.20;;;;;;;;;;4988479;28;20210;-73
2023/09/11 12:14:39;;;;;;;8.82;4.43;;;;;;;;;;4992564;28;20599;-74
2023/09/11 12:17:08;;;;;;;8.65;4.53;;;;;;;;;;4987710;28;20207;-73
2023/09/11 12:19:35;;;;;;;11.75;5.40;;;;;;;;;;4981684;28;20709;-74
2023/09/11 12:22:02;;;;;;;6.47;4.90;;;;;;;;;;4985834;28;20214;-74
2023/09/11 12:24:28;;;;;;;6.65;4.85;;;;;;;;;;4989054;28;20374;-73
2023/09/11 12:26:54;;;;;;;8.45;4.90;;;;;;;;;;4990444;28;20331;-73
2023/09/11 12:29:21;;;;;;;10.93;5.30;;;;;;;;;;4988741;28;20211;-74
2023/09/11 12:31:47;;;;;;;13.68;5.40;;;;;;;;;;4993905;28;20226;-74
2023/09/11 12:34:13;;;;;;;9.88;5.18;;;;;;;;;;4996236;28;20234;-75
2023/09/11 12:36:43;;;;;;;12.48;4.78;;;;;;;;;;4995760;28;20219;-75
2023/09/11 12:39:09;;;;;;;8.00;4.65;;;;;;;;;;4993988;28;20210;-75
2023/09/11 12:41:36;;;;;;;10.15;4.55;;;;;;;;;;4983108;28;20207;-75
2023/09/11 12:44:04;;;;;;;10.10;4.97;;;;;;;;;;4993726;28;20202;-74
2023/09/11 12:46:30;;;;;;;5.97;4.80;;;;;;;;;;4991769;28;20238;-74
2023/09/11 12:48:56;;;;;;;12.20;5.60;;;;;;;;;;4994411;28;20218;-73
2023/09/11 12:51:23;;;;;;;12.32;4.85;;;;;;;;;;4986540;28;20222;-73
2023/09/11 12:53:51;;;;;;;12.10;5.65;;;;;;;;;;4979539;28;20671;-73
2023/09/11 12:56:20;;;;;;;8.27;4.50;;;;;;;;;;4987550;28;20226;-74
2023/09/11 12:58:46;;;;;;;9.73;4.75;;;;;;;;;;4996655;28;20474;-74
2023/09/11 13:01:13;;;;;;;10.82;5.57;;;;;;;;;;4994958;28;20434;-75
2023/09/11 13:03:44;;;;;;;11.50;5.13;;;;;;;;;;4987742;28;20294;-75
2023/09/11 13:06:10;;;;;;;7.13;4.78;;;;;;;;;;4996669;28;20226;-75
2023/09/11 13:08:37;;;;;;;8.02;4.57;;;;;;;;;;4995781;28;20202;-76
2023/09/11 13:11:04;;;;;;;10.10;4.80;;;;;;;;;;4995618;28;20299;-77
2023/09/11 13:13:31;;;;;;;9.90;4.65;;;;;;;;;;4990485;28;20253;-75
2023/09/11 13:15:57;;;;;;;8.07;4.85;;;;;;;;;;4989082;28;20281;-76
2023/09/11 13:18:23;;;;;;;7.60;4.30;;;;;;;;;;4996560;28;20226;-75
2023/09/11 13:20:49;;;;;;;8.30;5.00;;;;;;;;;;4987952;28;20202;-75
2023/09/11 13:23:16;;;;;;;12.00;4.70;;;;;;;;;;4995311;28;20673;-75
2023/09/11 13:25:42;;;;;;;8.90;4.97;;;;;;;;;;4988305;28;20230;-74
2023/09/11 13:28:10;;;;;;;9.05;4.57;;;;;;;;;;4989101;28;20215;-74
2023/09/11 13:30:36;;;;;;;9.00;4.60;;;;;;;;;;4992295;28;20560;-74
2023/09/11 13:33:02;;;;;;;13.38;4.60;;;;;;;;;;4997536;28;21217;-74
2023/09/11 13:35:28;;;;;;;8.25;4.63;;;;;;;;;;4992320;28;20238;-75
2023/09/11 13:37:55;;;;;;;10.13;4.40;;;;;;;;;;4989942;28;20203;-75
2023/09/11 13:40:21;;;;;;;13.25;4.72;;;;;;;;;;4988519;28;20210;-74
2023/09/11 13:42:48;;;;;;;13.95;5.05;;;;;;;;;;4992892;28;20217;-75
2023/09/11 13:45:17;;;;;;;11.02;4.57;;;;;;;;;;4994666;28;20718;-74
2023/09/11 13:47:43;;;;;;;13.52;4.60;;;;;;;;;;4987763;28;20683;-75
2023/09/11 13:50:10;;;;;;;14.50;4.63;;;;;;;;;;4995130;28;20213;-74
2023/09/11 13:52:36;;;;;;;9.45;5.00;;;;;;;;;;4990821;28;20215;-76
2023/09/11 13:55:02;;;;;;;6.32;4.68;;;;;;;;;;4979509;28;20733;-75
2023/09/11 13:57:28;;;;;;;9.23;4.68;;;;;;;;;;4992904;28;20211;-75
2023/09/11 13:59:55;;;;;;;11.23;4.65;;;;;;;;;;4989560;28;20964;-76
2023/09/11 14:02:22;;;;;;;9.00;4.60;;;;;;;;;;4999099;28;20655;-77
2023/09/11 14:04:49;;;;;;;9.13;5.10;;;;;;;;;;4989877;28;20218;-75
2023/09/11 14:07:15;;;;;;;9.00;4.50;;;;;;;;;;4994519;28;20209;-75
2023/09/11 14:09:42;;;;;;;10.80;5.00;;;;;;;;;;4987690;28;20199;-76
2023/09/11 14:12:08;;;;;;;17.15;4.68;;;;;;;;;;4993651;28;20202;-75
2023/09/11 14:14:35;;;;;;;6.50;4.85;;;;;;;;;;4996793;28;20260;-76
2023/09/11 14:17:02;;;;;;;6.78;4.60;;;;;;;;;;4994881;28;20214;-76
2023/09/11 14:19:29;;;;;;;7.30;4.97;;;;;;;;;;4995219;28;20203;-75
2023/09/11 14:21:56;;;;;;;9.20;4.70;;;;;;;;;;4992209;28;20584;-75
2023/09/11 14:24:22;;;;;;;16.48;5.15;;;;;;;;;;4985997;28;20266;-74
2023/09/11 14:26:48;;;;;;;8.35;4.45;;;;;;;;;;4986160;28;20256;-74
2023/09/11 14:29:14;;;;;;;10.13;4.80;;;;;;;;;;4994495;28;20207;-75